createdAt,value
2023-01-21T00:00:10.843Z,510.20
2023-01-21T00:02:37.549Z,509.60
2023-01-21T00:05:04.440Z,508.67
2023-01-21T00:07:31.121Z,504.67
2023-01-21T00:09:57.826Z,502.42
2023-01-21T00:12:24.509Z,499.00
2023-01-21T00:14:51.240Z,497.75
2023-01-21T00:17:17.957Z,490.98
2023-01-21T00:19:44.609Z,496.15
2023-01-21T00:22:11.297Z,494.25
2023-01-21T00:24:37.984Z,493.95
2023-01-21T00:27:04.635Z,494.88
2023-01-21T00:29:31.348Z,489.48
2023-01-21T05:31:33.462Z,447.92
2023-01-21T05:34:00.153Z,447.90
2023-01-21T05:36:27.019Z,443.73
2023-01-21T05:38:53.736Z,442.35
2023-01-21T05:41:20.647Z,438.00
2023-01-21T05:43:47.433Z,439.95
2023-01-21T05:46:14.242Z,440.20
2023-01-21T05:48:40.904Z,437.40
2023-01-21T05:51:07.699Z,441.08
2023-01-21T05:53:34.488Z,444.58
2023-01-21T05:56:01.223Z,438.65
2023-01-21T05:58:28.429Z,442.80
2023-01-21T06:00:57.949Z,440.58
2023-01-21T06:03:25.378Z,446.15
2023-01-21T06:05:52.161Z,450.38
2023-01-21T06:08:19.009Z,448.67
2023-01-21T06:10:45.717Z,450.52
2023-01-21T06:13:13.846Z,441.85
2023-01-21T06:15:40.596Z,443.40
2023-01-21T06:18:07.553Z,446.85
2023-01-21T06:20:34.354Z,439.88
2023-01-21T06:23:03.271Z,442.33
2023-01-21T06:25:30.737Z,435.77
2023-01-21T06:27:58.202Z,442.27
2023-01-21T06:30:25.846Z,442.95
2023-01-21T06:32:52.540Z,444.23
2023-01-21T06:35:19.503Z,437.77
2023-01-21T06:37:46.584Z,445.65
2023-01-21T06:40:14.824Z,443.75
2023-01-21T06:42:41.635Z,440.95
2023-01-21T06:45:09.018Z,441.25
2023-01-21T06:47:35.790Z,439.73
2023-01-21T06:50:02.468Z,440.77
2023-01-21T06:52:29.136Z,446.58
2023-01-21T06:54:55.813Z,443.08
2023-01-21T06:57:22.539Z,450.10
2023-01-21T06:59:49.191Z,447.98
2023-01-21T07:02:15.830Z,439.05
2023-01-21T07:04:42.540Z,442.20
2023-01-21T07:07:09.188Z,446.10
2023-01-21T07:09:35.813Z,452.08
2023-01-21T07:12:02.741Z,453.65
2023-01-21T07:14:29.375Z,450.83
2023-01-21T07:16:56.663Z,451.75
2023-01-21T07:19:23.480Z,456.48
2023-01-21T07:21:50.357Z,459.38
2023-01-21T07:24:17.105Z,453.75
2023-01-21T07:26:43.891Z,463.33
2023-01-21T07:29:10.726Z,474.63
2023-01-21T07:31:37.636Z,460.88
2023-01-21T07:34:04.513Z,467.55
2023-01-21T07:36:31.469Z,469.35
2023-01-21T07:38:59.074Z,467.70
2023-01-21T07:41:26.461Z,470.92
2023-01-21T07:43:53.210Z,458.77
2023-01-21T07:46:21.842Z,457.33
2023-01-21T07:48:50.899Z,453.52
2023-01-21T07:51:21.734Z,463.38
2023-01-21T07:53:48.752Z,459.63
2023-01-21T07:56:16.277Z,458.38
2023-01-21T07:58:42.955Z,459.88
2023-01-21T08:01:10.020Z,457.08
2023-01-21T08:03:37.613Z,454.70
2023-01-21T08:06:07.720Z,459.27
2023-01-21T08:08:34.857Z,456.58
2023-01-21T08:11:01.569Z,458.33
2023-01-21T08:13:28.302Z,461.27
2023-01-21T08:15:56.737Z,459.58
2023-01-21T08:18:24.383Z,459.52
2023-01-21T08:20:58.610Z,457.15
2023-01-21T08:23:26.827Z,476.63
2023-01-21T08:25:54.363Z,467.85
2023-01-21T08:28:21.905Z,461.17
2023-01-21T08:30:48.653Z,463.27
2023-01-21T08:33:15.484Z,465.75
2023-01-21T08:35:42.194Z,462.20
2023-01-21T08:38:08.932Z,473.30
2023-01-21T08:40:35.726Z,473.25
2023-01-21T08:43:04.303Z,473.17
2023-01-21T08:45:31.047Z,487.25
2023-01-21T08:47:57.745Z,470.23
2023-01-21T08:50:24.820Z,462.27
2023-01-21T08:52:55.463Z,463.02
2023-01-21T08:55:26.665Z,480.85
2023-01-21T08:57:54.616Z,492.93
2023-01-21T09:00:22.873Z,513.15
2023-01-21T09:02:51.605Z,528.88
2023-01-21T09:05:18.934Z,541.38
2023-01-21T09:07:45.972Z,533.97
2023-01-21T09:10:13.142Z,546.65
2023-01-21T09:12:42.604Z,574.55
2023-01-21T09:15:09.515Z,625.58
2023-01-21T09:17:36.630Z,685.40
2023-01-21T09:20:03.713Z,710.88
2023-01-21T09:22:30.357Z,729.80
2023-01-21T09:24:57.039Z,727.10
2023-01-21T09:27:27.226Z,713.40
2023-01-21T09:29:54.813Z,708.78
2023-01-21T09:32:21.519Z,700.78
2023-01-21T09:34:48.167Z,690.40
2023-01-21T09:37:14.833Z,679.28
2023-01-21T09:39:41.583Z,680.58
2023-01-21T09:42:21.234Z,669.95
2023-01-21T09:44:51.163Z,674.50
2023-01-21T09:47:28.356Z,688.47
2023-01-21T09:49:55.032Z,718.08
2023-01-21T09:52:31.232Z,764.78
2023-01-21T09:54:58.896Z,808.08
2023-01-21T09:57:44.201Z,830.80
2023-01-21T10:00:25.841Z,849.57
2023-01-21T10:03:16.234Z,880.20
2023-01-21T10:05:54.927Z,908.55
2023-01-21T10:08:30.706Z,935.42
2023-01-21T10:11:22.111Z,972.05
2023-01-21T10:14:26.847Z,1005.58
2023-01-21T10:17:12.934Z,1019.33
2023-01-21T10:19:41.739Z,1030.38
2023-01-21T10:22:18.504Z,1031.10
2023-01-21T10:24:50.375Z,1031.50
2023-01-21T10:27:20.028Z,1029.53
2023-01-21T10:30:00.582Z,1027.78
2023-01-21T10:32:28.359Z,1035.38
2023-01-21T10:34:57.170Z,1029.10
2023-01-21T10:37:39.138Z,1028.17
2023-01-21T10:40:18.916Z,1028.80
2023-01-21T10:43:14.867Z,1025.65
2023-01-21T10:46:05.340Z,1022.17
2023-01-21T10:48:50.216Z,1023.67
2023-01-21T10:51:42.709Z,1025.43
2023-01-21T10:54:32.388Z,1000.45
2023-01-21T10:57:23.726Z,994.78
2023-01-21T10:59:51.000Z,979.03
2023-01-21T11:02:27.516Z,951.77
2023-01-21T11:04:58.191Z,941.20
2023-01-21T11:07:26.379Z,920.63
2023-01-21T11:09:53.384Z,903.20
2023-01-21T11:12:21.397Z,898.10
2023-01-21T11:14:56.790Z,869.53
2023-01-21T11:17:39.007Z,851.63
2023-01-21T11:20:38.934Z,846.00
2023-01-21T11:23:06.842Z,833.08
2023-01-21T11:25:38.423Z,826.92
2023-01-21T11:28:05.763Z,814.05
2023-01-21T11:30:50.656Z,799.92
2023-01-21T11:33:37.352Z,783.87
2023-01-21T11:36:24.289Z,774.33
2023-01-21T11:39:02.715Z,773.85
2023-01-21T11:41:30.013Z,770.17
2023-01-21T11:44:18.093Z,746.30
2023-01-21T11:46:45.343Z,731.83
2023-01-21T11:49:26.632Z,713.53
2023-01-21T11:52:27.054Z,714.33
2023-01-21T11:54:53.761Z,692.92
2023-01-21T11:57:25.734Z,689.20
2023-01-21T11:59:56.612Z,686.00
2023-01-21T12:02:34.476Z,669.33
2023-01-21T12:05:08.323Z,670.88
2023-01-21T12:07:39.670Z,666.57
2023-01-21T12:10:12.552Z,649.85
2023-01-21T12:12:53.223Z,641.85
2023-01-21T12:15:26.252Z,629.88
2023-01-21T12:18:11.502Z,630.38
2023-01-21T12:20:50.612Z,612.15
2023-01-21T12:23:42.583Z,610.38
2023-01-21T12:26:39.261Z,572.92
2023-01-21T12:29:24.437Z,572.28
2023-01-21T12:32:01.717Z,565.95
2023-01-21T12:34:37.849Z,569.70
2023-01-21T12:37:26.996Z,565.92
2023-01-21T12:39:56.088Z,558.58
2023-01-21T12:42:32.078Z,552.28
2023-01-21T12:45:11.406Z,548.47
2023-01-21T12:47:43.987Z,552.58
2023-01-21T12:50:36.195Z,546.42
2023-01-21T12:53:14.821Z,551.92
2023-01-21T12:56:01.817Z,557.45
2023-01-21T12:58:57.932Z,552.13
2023-01-21T13:02:05.573Z,546.40
2023-01-21T13:04:47.663Z,550.45
2023-01-21T13:07:34.549Z,554.88
2023-01-21T13:10:26.512Z,551.10
2023-01-21T13:13:18.911Z,550.90
2023-01-21T13:15:50.304Z,547.15
2023-01-21T13:18:23.437Z,554.20
2023-01-21T13:20:58.651Z,551.60
2023-01-21T13:24:04.843Z,550.10
2023-01-21T13:26:59.326Z,547.50
2023-01-21T13:29:38.031Z,555.53
2023-01-21T13:32:32.736Z,544.65
2023-01-21T13:35:21.830Z,545.75
2023-01-21T13:38:00.633Z,551.17
2023-01-21T13:40:41.076Z,551.08
2023-01-21T13:43:54.789Z,548.40
2023-01-21T13:46:59.676Z,559.80
2023-01-21T13:49:35.352Z,551.97
2023-01-21T13:52:18.298Z,555.55
2023-01-21T13:54:53.915Z,556.78
2023-01-21T13:57:56.038Z,553.17
2023-01-21T14:00:34.842Z,557.28
2023-01-21T14:03:10.617Z,547.90
2023-01-21T14:05:52.762Z,557.92
2023-01-21T14:08:25.359Z,552.80
2023-01-21T14:11:16.844Z,546.35
2023-01-21T14:13:50.648Z,553.92
2023-01-21T14:16:39.023Z,547.08
2023-01-21T14:19:41.184Z,548.40
2023-01-21T14:22:29.686Z,560.80
2023-01-21T14:25:08.796Z,562.20
2023-01-21T14:28:03.540Z,556.42
2023-01-21T14:30:33.429Z,557.03
2023-01-21T14:33:15.895Z,555.20
2023-01-21T14:35:55.988Z,549.50
2023-01-21T14:38:36.671Z,559.83
2023-01-21T14:41:06.399Z,560.97
2023-01-21T14:43:33.028Z,562.20
2023-01-21T14:46:01.197Z,559.90
2023-01-21T14:48:33.583Z,562.65
2023-01-21T14:51:06.555Z,568.13
2023-01-21T14:53:58.098Z,561.83
2023-01-21T14:56:35.258Z,561.03
2023-01-21T14:59:23.382Z,567.95
2023-01-21T15:02:01.376Z,564.70
2023-01-21T15:04:30.616Z,559.13
2023-01-21T15:07:00.986Z,566.00
2023-01-21T15:09:34.885Z,560.60
2023-01-21T15:12:15.692Z,558.75
2023-01-21T15:14:43.331Z,558.90
2023-01-21T15:17:45.395Z,566.78
2023-01-21T15:20:45.262Z,564.58
2023-01-21T15:23:30.318Z,559.28
2023-01-21T15:26:09.243Z,552.22
2023-01-21T15:28:49.358Z,554.50
2023-01-21T15:31:22.104Z,561.05
2023-01-21T15:34:07.142Z,551.35
2023-01-21T15:36:43.118Z,555.75
2023-01-21T15:39:14.206Z,563.97
2023-01-21T15:42:05.874Z,560.78
2023-01-21T15:44:56.433Z,558.40
2023-01-21T15:47:54.140Z,556.83
2023-01-21T15:50:25.888Z,560.57
2023-01-21T15:53:15.529Z,558.88
2023-01-21T15:56:12.042Z,556.28
2023-01-21T15:58:53.876Z,556.03
2023-01-21T16:01:37.985Z,555.75
2023-01-21T16:04:23.612Z,550.08
2023-01-21T16:07:10.647Z,555.33
2023-01-21T16:09:49.417Z,557.70
2023-01-21T16:12:32.128Z,551.72
2023-01-21T16:15:05.655Z,550.63
2023-01-21T16:17:57.235Z,552.10
2023-01-21T16:20:24.321Z,546.17
2023-01-21T16:22:53.833Z,553.28
2023-01-21T16:25:23.471Z,543.33
2023-01-21T16:27:53.056Z,544.45
2023-01-21T16:30:31.892Z,552.70
2023-01-21T16:33:09.477Z,554.50
2023-01-21T16:35:43.982Z,550.83
2023-01-21T16:38:41.235Z,553.78
2023-01-21T16:41:07.833Z,549.53
2023-01-21T16:43:37.940Z,551.90
2023-01-21T16:46:11.633Z,540.15
2023-01-21T16:48:38.523Z,549.25
2023-01-21T16:51:06.067Z,541.60
2023-01-21T16:53:32.802Z,541.55
2023-01-21T16:55:59.958Z,545.23
2023-01-21T16:58:32.535Z,547.42
2023-01-21T17:01:17.045Z,546.63
2023-01-21T17:03:44.934Z,545.13
2023-01-21T17:06:21.372Z,546.10
2023-01-21T17:08:53.819Z,547.95
2023-01-21T17:11:22.137Z,546.28
2023-01-21T17:13:49.530Z,550.95
2023-01-21T17:16:31.731Z,548.90
2023-01-21T17:18:59.575Z,559.03
2023-01-21T17:21:42.473Z,556.35
2023-01-21T17:24:23.825Z,551.40
2023-01-21T17:26:54.047Z,550.15
2023-01-21T17:29:31.623Z,548.88
2023-01-21T17:32:04.679Z,553.85
2023-01-21T17:34:34.816Z,551.15
2023-01-21T17:37:02.296Z,550.83
2023-01-21T17:39:57.848Z,555.95
2023-01-21T17:42:29.654Z,549.30
2023-01-21T17:44:59.664Z,559.10
2023-01-21T17:47:31.397Z,551.75
2023-01-21T17:50:16.551Z,551.60
2023-01-21T17:52:57.699Z,549.50
2023-01-21T17:55:35.826Z,553.13
2023-01-21T17:58:05.655Z,562.42
2023-01-21T18:00:42.567Z,555.60
2023-01-21T18:03:10.959Z,558.93
2023-01-21T18:05:38.885Z,570.85
2023-01-21T18:08:13.852Z,564.58
2023-01-21T18:10:41.282Z,558.88
2023-01-21T18:13:14.600Z,554.05
2023-01-21T18:15:42.981Z,555.97
2023-01-21T18:18:18.600Z,552.63
2023-01-21T18:20:46.271Z,554.55
2023-01-21T18:23:14.865Z,551.73
2023-01-21T18:25:42.510Z,549.47
2023-01-21T18:28:21.314Z,552.28
2023-01-21T18:30:50.035Z,551.73
2023-01-21T18:33:17.248Z,548.35
2023-01-21T18:35:46.556Z,545.92
2023-01-21T18:38:15.745Z,552.90
2023-01-21T18:40:42.471Z,547.28
2023-01-21T18:43:09.820Z,548.42
2023-01-21T18:45:36.661Z,561.55
2023-01-21T18:48:03.692Z,550.93
2023-01-21T18:50:30.515Z,554.05
2023-01-21T18:52:57.282Z,553.88
2023-01-21T18:55:28.539Z,547.80
2023-01-21T18:57:56.774Z,548.72
2023-01-21T19:00:29.797Z,546.35
2023-01-21T19:02:58.745Z,552.63
2023-01-21T19:05:36.497Z,545.40
2023-01-21T19:08:06.064Z,547.75
2023-01-21T19:10:32.732Z,545.75
2023-01-21T19:12:59.449Z,549.03
2023-01-21T19:15:28.349Z,548.30
2023-01-21T19:17:56.083Z,544.55
2023-01-21T19:20:26.088Z,544.72
2023-01-21T19:22:54.552Z,544.67
2023-01-21T19:25:22.990Z,547.58
2023-01-21T19:27:51.677Z,549.78
2023-01-21T19:30:23.501Z,551.13
2023-01-21T19:32:51.823Z,546.42
2023-01-21T19:35:33.995Z,548.15
2023-01-21T19:38:02.590Z,548.28
2023-01-21T19:40:30.309Z,553.15
2023-01-21T19:42:57.047Z,549.35
2023-01-21T19:45:27.332Z,553.38
2023-01-21T19:47:54.731Z,544.58
2023-01-21T19:50:26.726Z,550.35
2023-01-21T19:52:54.699Z,548.77
2023-01-21T19:55:24.157Z,549.78
2023-01-21T19:58:00.361Z,553.70
2023-01-21T20:00:29.505Z,553.45
2023-01-21T20:02:56.181Z,551.60
2023-01-21T20:05:23.742Z,554.60
2023-01-21T20:07:51.151Z,546.87
2023-01-21T20:10:24.316Z,547.03
2023-01-21T20:12:51.550Z,550.40
2023-01-21T20:15:22.280Z,543.05
2023-01-21T20:17:52.624Z,544.38
2023-01-21T20:20:20.685Z,547.03
2023-01-21T20:22:47.844Z,549.50
2023-01-21T20:25:20.255Z,546.65
2023-01-21T20:27:51.509Z,547.72
2023-01-21T20:30:20.710Z,541.88
2023-01-21T20:32:49.005Z,543.28
2023-01-21T20:35:17.323Z,544.35
2023-01-21T20:37:50.012Z,550.70
2023-01-21T20:40:19.731Z,554.25
2023-01-21T20:42:47.547Z,547.60
2023-01-21T20:45:16.024Z,547.73
2023-01-21T20:47:50.066Z,547.35
2023-01-21T20:50:22.832Z,547.92
2023-01-21T20:52:51.582Z,550.72
2023-01-21T20:55:21.216Z,551.58
2023-01-21T20:57:48.207Z,537.92
2023-01-21T21:00:18.359Z,544.95
2023-01-21T21:02:45.320Z,537.88
2023-01-21T21:05:13.964Z,533.95
2023-01-21T21:07:41.039Z,535.50
2023-01-21T21:10:18.489Z,532.83
2023-01-21T21:12:45.489Z,521.30
2023-01-21T21:15:12.737Z,517.67
2023-01-21T21:17:39.481Z,517.37
2023-01-21T21:20:08.843Z,525.15
2023-01-21T21:22:35.517Z,519.83
2023-01-21T21:25:02.149Z,519.40
2023-01-21T21:27:28.762Z,518.55
2023-01-21T21:29:59.150Z,522.70
2023-01-21T21:32:25.795Z,527.85
2023-01-21T21:34:55.092Z,523.28
2023-01-21T21:37:21.826Z,523.55
2023-01-21T21:39:48.530Z,532.08
2023-01-21T21:42:33.813Z,523.85
2023-01-21T21:45:00.453Z,519.10
2023-01-21T21:47:46.344Z,520.50
2023-01-21T21:50:13.081Z,522.00
2023-01-21T21:52:39.877Z,522.43
2023-01-21T21:55:10.347Z,532.10
2023-01-21T21:57:37.024Z,530.72
2023-01-21T22:00:03.927Z,533.67
2023-01-21T22:02:30.611Z,534.60
2023-01-21T22:04:57.311Z,530.00
2023-01-21T22:07:24.368Z,541.65
2023-01-21T22:09:51.003Z,532.45
2023-01-21T22:12:19.509Z,533.43
2023-01-21T22:14:46.178Z,544.42
2023-01-21T22:17:12.804Z,539.45
2023-01-21T22:19:39.559Z,531.70
2023-01-21T22:22:06.345Z,535.20
2023-01-21T22:24:33.041Z,545.08
2023-01-21T22:26:59.890Z,544.95
2023-01-21T22:29:26.674Z,543.45
2023-01-21T22:31:53.373Z,542.95
2023-01-21T22:34:20.088Z,547.45
2023-01-21T22:36:48.108Z,538.63
2023-01-21T22:39:14.875Z,540.95
2023-01-21T22:41:41.546Z,545.95
2023-01-21T22:44:08.463Z,542.90
2023-01-21T22:46:35.315Z,536.78
2023-01-21T22:49:02.287Z,545.50
2023-01-21T22:51:29.095Z,545.10
2023-01-21T22:53:56.060Z,545.90
2023-01-21T22:56:39.855Z,548.92
2023-01-21T22:59:11.388Z,543.83
2023-01-21T23:01:38.377Z,535.10
2023-01-21T23:04:05.277Z,537.47
2023-01-21T23:06:32.103Z,536.20
2023-01-21T23:08:58.795Z,543.90
2023-01-21T23:11:25.457Z,541.87
2023-01-21T23:13:54.275Z,534.20
2023-01-21T23:16:21.409Z,523.75
2023-01-21T23:18:48.709Z,526.42
2023-01-21T23:21:18.539Z,517.30
2023-01-21T23:23:45.250Z,517.20
2023-01-21T23:26:14.226Z,516.80
2023-01-21T23:28:41.098Z,517.92
2023-01-21T23:31:14.500Z,513.17
2023-01-21T23:33:41.690Z,514.30
2023-01-21T23:36:11.109Z,510.50
2023-01-21T23:38:37.763Z,513.45
2023-01-21T23:41:09.346Z,517.05
2023-01-21T23:43:37.077Z,519.90
2023-01-21T23:46:08.939Z,524.87
2023-01-21T23:48:35.690Z,520.92
2023-01-21T23:51:08.081Z,501.25
2023-01-21T23:53:34.808Z,499.40
2023-01-21T23:56:22.114Z,500.90
2023-01-21T23:58:49.499Z,502.48
